Time;durP1;ratioP1;P1;durP2;ratioP2;P2;SDS_P1;SDS_P2;PMS_P1;PMS_P2;Temp;Humidity;BMP_temperature;BMP_pressure;BME280_temperature;BME280_humidity;BME280_pressure;Samples;Min_cycle;Max_cycle;Signal;HPM_P1;HPM_P2
2022/01/28 00:04:53;;;;;;;71.03;39.70;;;0.10;99.90;;;;;;4952358;29;20027;-69
2022/01/28 00:07:18;;;;;;;75.03;39.75;;;0.20;99.90;;;;;;4951079;28;20031;-69
2022/01/28 00:09:44;;;;;;;114.85;46.22;;;0.60;99.90;;;;;;4950886;28;20400;-69
2022/01/28 00:12:24;;;;;;;130.10;45.22;;;0.10;99.90;;;;;;4952024;29;20040;-72
2022/01/28 00:15:06;;;;;;;91.85;45.85;;;-0.10;99.90;;;;;;4954476;28;20543;-70
2022/01/28 00:39:09;;;;;;;141.65;50.78;;;-0.50;99.90;;;;;;4951546;29;20027;-69
2022/01/28 00:41:35;;;;;;;95.25;59.72;;;-0.60;99.90;;;;;;4953142;29;20041;-69
2022/01/28 00:44:00;;;;;;;112.93;48.67;;;-0.50;99.90;;;;;;4950189;28;20032;-69
2022/01/28 00:46:26;;;;;;;117.05;48.45;;;-0.60;99.90;;;;;;4950238;29;20086;-69
2022/01/28 00:48:52;;;;;;;89.30;44.63;;;-0.60;99.90;;;;;;4950214;28;20055;-70
2022/01/28 00:51:17;;;;;;;134.55;43.58;;;-0.70;99.90;;;;;;4950303;28;20110;-69
2022/01/28 00:53:43;;;;;;;93.15;47.30;;;-0.60;99.90;;;;;;4954665;29;20137;-69
2022/01/28 00:56:09;;;;;;;107.47;47.28;;;-0.60;99.90;;;;;;4949664;28;20035;-69
2022/01/28 00:58:34;;;;;;;97.45;48.03;;;-0.70;99.90;;;;;;4949949;29;20027;-69
2022/01/28 01:01:00;;;;;;;93.43;47.60;;;-0.60;99.90;;;;;;4951587;29;20108;-69
2022/01/28 01:03:26;;;;;;;78.20;45.03;;;-0.50;99.90;;;;;;4949917;28;20024;-69
2022/01/28 01:05:52;;;;;;;94.45;48.67;;;-0.30;99.90;;;;;;4953217;28;20035;-69
2022/01/28 01:08:17;;;;;;;120.18;58.85;;;-0.40;99.90;;;;;;4952015;29;20035;-69
2022/01/28 01:10:43;;;;;;;133.40;77.45;;;-0.50;99.90;;;;;;4949694;29;20031;-69
2022/01/28 01:13:09;;;;;;;91.13;57.72;;;-0.50;99.90;;;;;;4949881;29;20027;-69
2022/01/28 01:15:40;;;;;;;101.43;48.97;;;-0.40;99.90;;;;;;4949989;29;20028;-69
2022/01/28 01:18:53;;;;;;;105.00;54.97;;;-0.40;99.90;;;;;;4951926;29;20030;-69
2022/01/28 01:23:36;;;;;;;114.38;51.30;;;-0.50;99.90;;;;;;4951519;29;20035;-69
2022/01/28 01:28:33;;;;;;;95.97;49.42;;;-0.40;99.90;;;;;;4950293;29;20031;-69
2022/01/28 01:31:02;;;;;;;117.57;53.17;;;-0.50;99.90;;;;;;4950074;29;20054;-69
2022/01/28 01:33:30;;;;;;;114.78;53.35;;;-0.40;99.90;;;;;;4949754;28;20074;-69
2022/01/28 01:35:59;;;;;;;108.82;50.78;;;-0.30;99.90;;;;;;4952063;29;20035;-69
2022/01/28 01:38:27;;;;;;;154.77;59.20;;;-0.30;99.90;;;;;;4950900;28;20107;-68
2022/01/28 01:40:58;;;;;;;153.32;64.03;;;-0.30;99.90;;;;;;4950842;28;20054;-69
2022/01/28 01:46:14;;;;;;;100.93;52.55;;;-0.30;99.90;;;;;;4951470;28;20031;-68
2022/01/28 01:54:09;;;;;;;81.03;47.28;;;0.00;99.90;;;;;;4951046;29;20416;-69
2022/01/28 01:56:37;;;;;;;79.57;45.60;;;0.20;99.90;;;;;;4952002;29;20036;-69
2022/01/28 01:59:02;;;;;;;93.75;50.45;;;0.40;99.90;;;;;;4949497;29;20047;-69
2022/01/28 02:01:28;;;;;;;100.50;51.22;;;0.40;99.90;;;;;;4949262;29;20496;-69
2022/01/28 02:03:54;;;;;;;101.30;49.40;;;0.10;99.90;;;;;;4949315;29;20404;-69
2022/01/28 02:06:21;;;;;;;119.20;52.90;;;0.10;99.90;;;;;;4949822;28;20042;-69
2022/01/28 02:08:47;;;;;;;120.50;56.80;;;0.10;99.90;;;;;;4953200;28;20473;-69
2022/01/28 02:11:13;;;;;;;114.93;51.20;;;-0.10;99.90;;;;;;4949410;29;20564;-69
2022/01/28 02:13:40;;;;;;;94.93;51.35;;;0.00;99.90;;;;;;4949816;28;20527;-69
2022/01/28 02:16:07;;;;;;;87.45;47.58;;;0.20;99.90;;;;;;4954377;28;20031;-69
2022/01/28 02:18:33;;;;;;;98.13;49.65;;;0.30;99.90;;;;;;4954361;29;20396;-69
2022/01/28 02:21:09;;;;;;;94.45;48.92;;;0.30;99.90;;;;;;4955380;28;20028;-69
2022/01/28 02:23:36;;;;;;;102.20;49.95;;;0.20;99.90;;;;;;4955704;29;20042;-69
2022/01/28 02:26:03;;;;;;;101.80;50.35;;;0.30;99.90;;;;;;4954279;28;20066;-69
2022/01/28 02:28:32;;;;;;;97.50;49.92;;;0.30;99.90;;;;;;4953114;28;20485;-69
2022/01/28 02:31:05;;;;;;;83.55;46.50;;;0.20;99.90;;;;;;4952549;28;20032;-69
2022/01/28 02:33:31;;;;;;;85.85;46.58;;;0.30;99.90;;;;;;4952984;28;20031;-68
2022/01/28 02:36:05;;;;;;;78.00;45.85;;;0.40;99.90;;;;;;4955609;28;20118;-69
2022/01/28 02:38:31;;;;;;;;;;;0.60;99.90;;;;;;4955395;29;20038;-69
2022/01/28 02:40:59;;;;;;;79.95;44.00;;;0.80;99.90;;;;;;4952495;28;19919;-69
2022/01/28 02:45:54;;;;;;;74.60;43.75;;;0.80;99.90;;;;;;4952443;29;20035;-68
2022/01/28 02:48:25;;;;;;;85.88;45.85;;;0.70;99.90;;;;;;4952742;29;20118;-70
2022/01/28 02:53:26;;;;;;;88.30;47.67;;;0.20;99.90;;;;;;4955493;29;20382;-69
2022/01/28 02:55:58;;;;;;;88.72;45.88;;;0.30;99.90;;;;;;4953632;28;20070;-68
2022/01/28 02:58:26;;;;;;;95.47;50.03;;;0.20;99.90;;;;;;4953569;28;20031;-68
2022/01/28 03:00:54;;;;;;;87.05;46.58;;;0.20;99.90;;;;;;4952489;29;20047;-69
2022/01/28 03:03:23;;;;;;;100.40;48.38;;;0.40;99.90;;;;;;4953398;29;20477;-69
2022/01/28 03:05:52;;;;;;;90.38;47.30;;;0.30;99.90;;;;;;4955572;28;20039;-68
2022/01/28 03:08:19;;;;;;;90.28;48.33;;;0.30;99.90;;;;;;4953230;29;20024;-69
2022/01/28 03:15:38;;;;;;;96.47;46.63;;;0.60;99.90;;;;;;4951992;29;20032;-69
2022/01/28 03:18:18;;;;;;;107.80;50.25;;;0.40;99.90;;;;;;4953890;28;20401;-70
2022/01/28 03:21:18;;;;;;;103.85;49.35;;;0.20;99.90;;;;;;4954875;29;20054;-69
2022/01/28 03:23:32;;;;;;;115.00;51.45;;;0.40;99.90;;;;;;4953800;29;20122;-69
2022/01/28 03:25:57;;;;;;;90.55;46.75;;;0.20;99.90;;;;;;4951497;29;20050;-70
2022/01/28 03:28:23;;;;;;;105.88;53.15;;;0.50;99.90;;;;;;4951915;29;20027;-69
2022/01/28 03:30:49;;;;;;;108.18;53.88;;;0.60;99.90;;;;;;4951987;29;20491;-70
2022/01/28 03:33:15;;;;;;;99.25;51.03;;;0.60;99.90;;;;;;4967994;28;20019;-70
2022/01/28 03:35:40;;;;;;;128.93;54.40;;;0.50;99.90;;;;;;4955268;29;20118;-70
2022/01/28 03:38:11;;;;;;;92.30;46.50;;;0.50;99.90;;;;;;4951926;29;20031;-69
2022/01/28 03:40:37;;;;;;;122.75;50.38;;;0.60;99.90;;;;;;4951693;29;20035;-70
2022/01/28 03:43:06;;;;;;;115.60;48.80;;;0.50;99.90;;;;;;4952874;29;20039;-69
2022/01/28 03:45:32;;;;;;;107.60;50.45;;;0.70;99.90;;;;;;4951502;29;20035;-70
2022/01/28 03:47:59;;;;;;;110.68;49.42;;;0.50;99.90;;;;;;4954056;28;20114;-70
2022/01/28 03:50:25;;;;;;;110.13;49.08;;;0.50;99.90;;;;;;4952686;28;20027;-69
2022/01/28 03:52:50;;;;;;;99.55;48.90;;;0.50;99.90;;;;;;4951547;29;20033;-69
2022/01/28 03:55:16;;;;;;;111.60;47.85;;;0.50;99.90;;;;;;4951126;28;20425;-70
2022/01/28 03:57:42;;;;;;;94.47;47.17;;;0.50;99.90;;;;;;4951352;28;20043;-69
2022/01/28 04:00:10;;;;;;;128.50;47.95;;;0.70;99.90;;;;;;4952984;29;20039;-70
2022/01/28 04:02:38;;;;;;;128.82;47.60;;;0.90;99.90;;;;;;4952749;29;20502;-69
2022/01/28 04:13:45;;;;;;;104.68;43.97;;;0.70;99.90;;;;;;4951774;29;20170;-69
2022/01/28 04:18:42;;;;;;;111.30;45.70;;;0.80;99.90;;;;;;4950442;29;20031;-69
2022/01/28 04:21:08;;;;;;;122.75;44.95;;;0.70;99.90;;;;;;4951376;29;20242;-70
2022/01/28 04:23:34;;;;;;;106.35;39.83;;;0.70;99.90;;;;;;4952607;28;20100;-70
2022/01/28 04:25:59;;;;;;;127.28;42.10;;;0.60;99.90;;;;;;4950471;29;20174;-70
2022/01/28 04:28:25;;;;;;;115.70;41.22;;;0.70;99.90;;;;;;4951037;29;20027;-70
2022/01/28 04:30:51;;;;;;;185.32;46.65;;;0.60;99.90;;;;;;4950915;29;20039;-70
2022/01/28 04:33:16;;;;;;;118.18;38.78;;;0.70;99.90;;;;;;4935659;29;20050;-70
2022/01/28 04:35:45;;;;;;;123.47;41.25;;;0.60;99.90;;;;;;4952197;29;20054;-69
2022/01/28 04:38:27;;;;;;;153.90;43.05;;;0.70;99.90;;;;;;4950846;28;20158;-70
2022/01/28 04:43:52;;;;;;;106.85;38.22;;;0.80;99.90;;;;;;4931467;29;20481;-70
2022/01/28 04:48:52;;;;;;;98.20;39.50;;;0.70;99.90;;;;;;4931695;29;20083;-70
2022/01/28 04:51:33;;;;;;;197.20;47.47;;;0.80;99.90;;;;;;4932307;29;20519;-70
2022/01/28 04:54:34;;;;;;;116.88;40.28;;;0.80;99.90;;;;;;4929526;28;20032;-70
2022/01/28 05:03:36;;;;;;;110.80;40.05;;;0.80;99.90;;;;;;4896345;29;20525;-68
2022/01/28 05:26:26;;;;;;;163.55;43.42;;;0.90;99.90;;;;;;4859189;29;20076;-70
2022/01/28 05:28:52;;;;;;;98.05;41.20;;;0.90;99.90;;;;;;4858994;29;20078;-70
2022/01/28 05:31:18;;;;;;;92.90;39.53;;;0.90;99.90;;;;;;4856925;29;20477;-70
2022/01/28 05:33:46;;;;;;;138.40;40.40;;;0.90;99.90;;;;;;4857182;29;20051;-70
2022/01/28 05:36:12;;;;;;;124.90;39.15;;;0.80;99.90;;;;;;4857590;29;20148;-70
2022/01/28 05:38:38;;;;;;;147.45;42.53;;;0.90;99.90;;;;;;4876001;29;20448;-69
2022/01/28 05:41:04;;;;;;;148.75;39.17;;;0.90;99.90;;;;;;4872945;29;20427;-70
2022/01/28 05:43:30;;;;;;;164.82;39.60;;;0.90;99.90;;;;;;4872921;29;20147;-69
2022/01/28 05:45:56;;;;;;;76.00;33.75;;;0.90;99.90;;;;;;4872274;29;20417;-70
2022/01/28 05:48:22;;;;;;;101.85;35.90;;;1.20;99.90;;;;;;4874162;29;20080;-69
2022/01/28 05:50:48;;;;;;;92.15;34.10;;;1.10;99.90;;;;;;4879696;29;20495;-70
2022/01/28 05:53:14;;;;;;;114.68;35.53;;;1.10;99.90;;;;;;4876888;29;20033;-70
2022/01/28 05:55:40;;;;;;;174.68;39.25;;;1.00;99.90;;;;;;4879871;29;20096;-69
2022/01/28 05:58:06;;;;;;;94.43;33.63;;;1.00;99.90;;;;;;4898449;29;20036;-69
2022/01/28 06:00:32;;;;;;;137.85;40.90;;;0.90;99.90;;;;;;4895379;29;20059;-69
2022/01/28 06:02:57;;;;;;;106.47;39.17;;;0.80;99.90;;;;;;4915057;29;20032;-69
2022/01/28 06:05:29;;;;;;;81.00;34.17;;;0.80;99.90;;;;;;4955084;29;20070;-69
2022/01/28 06:07:55;;;;;;;110.57;38.75;;;1.00;99.90;;;;;;4953170;29;20035;-69
2022/01/28 06:10:21;;;;;;;109.15;40.97;;;1.20;99.90;;;;;;4954446;29;20027;-70
2022/01/28 06:12:50;;;;;;;127.78;39.03;;;1.10;99.90;;;;;;4954787;29;20027;-69
2022/01/28 06:15:16;;;;;;;134.85;38.65;;;1.10;99.90;;;;;;4953449;29;20046;-70
2022/01/28 06:17:42;;;;;;;101.85;34.10;;;1.00;99.90;;;;;;4956801;29;20047;-69
2022/01/28 06:20:10;;;;;;;76.68;31.63;;;1.10;99.90;;;;;;4954372;28;20079;-69
2022/01/28 06:22:40;;;;;;;68.25;32.47;;;1.20;99.90;;;;;;4952905;29;20054;-69
2022/01/28 06:25:07;;;;;;;65.35;31.00;;;1.20;99.90;;;;;;4952845;28;20460;-69
2022/01/28 06:27:34;;;;;;;97.70;33.00;;;1.70;99.90;;;;;;4953151;29;20028;-68
2022/01/28 06:30:00;;;;;;;68.00;30.50;;;1.70;99.90;;;;;;4955051;28;20051;-69
2022/01/28 06:32:25;;;;;;;74.93;30.75;;;1.80;99.90;;;;;;4954314;28;20023;-68
2022/01/28 06:34:51;;;;;;;100.13;34.33;;;1.50;99.90;;;;;;4952772;28;20038;-69
2022/01/28 06:37:17;;;;;;;64.05;30.73;;;1.30;99.90;;;;;;4953110;29;20027;-69
2022/01/28 06:39:43;;;;;;;72.63;32.15;;;1.20;99.90;;;;;;4952500;28;20031;-68
2022/01/28 06:42:09;;;;;;;118.82;35.80;;;1.20;99.90;;;;;;4954290;29;20027;-69
2022/01/28 06:44:35;;;;;;;66.00;31.85;;;1.10;99.90;;;;;;4954702;29;20050;-69
2022/01/28 06:47:00;;;;;;;66.63;30.92;;;1.10;99.90;;;;;;4952482;29;20073;-69
2022/01/28 06:49:26;;;;;;;69.55;29.95;;;1.30;99.90;;;;;;4953782;29;20039;-69
2022/01/28 06:51:52;;;;;;;120.57;34.80;;;1.50;99.90;;;;;;4953604;29;20156;-69
2022/01/28 06:54:18;;;;;;;117.47;35.83;;;1.20;99.90;;;;;;4937141;29;20050;-69
2022/01/28 06:56:44;;;;;;;98.05;35.38;;;1.10;99.90;;;;;;4955401;29;20028;-70
2022/01/28 06:59:11;;;;;;;83.53;31.98;;;1.00;99.90;;;;;;4953015;28;20035;-70
2022/01/28 07:01:37;;;;;;;87.45;34.55;;;1.20;99.90;;;;;;4951613;29;20031;-69
2022/01/28 07:04:03;;;;;;;139.65;39.85;;;1.20;99.90;;;;;;4952302;29;20067;-70
2022/01/28 07:06:29;;;;;;;64.32;32.58;;;1.00;99.90;;;;;;4952229;28;20036;-70
2022/01/28 07:08:54;;;;;;;100.50;34.58;;;1.20;99.90;;;;;;4954783;28;20078;-69
2022/01/28 07:11:20;;;;;;;111.32;36.92;;;1.10;99.90;;;;;;4953511;29;20055;-69
2022/01/28 07:13:46;;;;;;;69.72;32.67;;;1.00;99.90;;;;;;4952777;28;20509;-68
2022/01/28 07:16:11;;;;;;;82.85;32.20;;;1.20;99.90;;;;;;4952068;29;20038;-69
2022/01/28 07:18:37;;;;;;;66.30;29.77;;;1.00;99.90;;;;;;4952084;29;20500;-69
2022/01/28 07:21:03;;;;;;;68.85;30.27;;;1.10;99.90;;;;;;4954380;29;20503;-69
2022/01/28 07:23:29;;;;;;;86.28;29.80;;;0.90;99.90;;;;;;4953392;29;20054;-69
2022/01/28 07:25:55;;;;;;;93.90;31.27;;;1.00;99.90;;;;;;4951393;28;20051;-70
2022/01/28 07:28:25;;;;;;;79.47;31.58;;;1.00;99.90;;;;;;4952873;29;20027;-69
2022/01/28 07:30:51;;;;;;;84.43;31.40;;;1.20;99.90;;;;;;4953378;29;20043;-68
2022/01/28 07:33:17;;;;;;;153.25;37.22;;;1.00;99.90;;;;;;4952528;29;20416;-68
2022/01/28 07:35:43;;;;;;;186.40;48.78;;;0.90;99.90;;;;;;4955103;29;20110;-69
2022/01/28 07:38:10;;;;;;;117.93;35.83;;;0.70;99.90;;;;;;4952813;28;20129;-69
2022/01/28 07:40:36;;;;;;;99.18;35.15;;;0.80;99.90;;;;;;4951238;28;20042;-71
2022/01/28 07:43:02;;;;;;;69.93;31.45;;;0.80;99.90;;;;;;4951333;28;20102;-70
2022/01/28 07:45:28;;;;;;;147.30;38.85;;;0.90;99.90;;;;;;4951742;29;20024;-69
2022/01/28 07:47:54;;;;;;;106.38;34.60;;;0.80;99.90;;;;;;4952639;29;20094;-75
2022/01/28 07:50:20;;;;;;;93.47;32.33;;;0.80;99.90;;;;;;4952103;29;20515;-68
2022/01/28 07:52:46;;;;;;;83.25;33.80;;;0.90;99.90;;;;;;4950909;28;20024;-69
2022/01/28 07:55:13;;;;;;;73.93;30.67;;;1.20;99.90;;;;;;4950461;28;20175;-71
2022/01/28 07:57:40;;;;;;;140.00;38.30;;;1.20;99.90;;;;;;4951082;28;20028;-69
2022/01/28 08:00:08;;;;;;;78.20;32.55;;;0.90;99.90;;;;;;4951472;28;20043;-71
2022/01/28 08:02:34;;;;;;;74.45;33.95;;;1.00;99.90;;;;;;4953030;29;20488;-71
2022/01/28 08:05:00;;;;;;;71.82;34.03;;;1.00;99.90;;;;;;4950631;29;20019;-70
2022/01/28 08:07:26;;;;;;;93.20;36.35;;;1.00;99.90;;;;;;4950955;28;20078;-68
2022/01/28 08:09:52;;;;;;;98.43;34.10;;;1.20;99.90;;;;;;4950358;28;20057;-69
2022/01/28 08:12:18;;;;;;;125.53;36.13;;;1.10;99.90;;;;;;4950561;28;20023;-69
2022/01/28 08:14:44;;;;;;;86.40;32.03;;;1.20;99.90;;;;;;4954812;29;20038;-69
2022/01/28 08:17:11;;;;;;;91.95;33.08;;;1.20;99.90;;;;;;4951034;29;20015;-68
2022/01/28 08:19:37;;;;;;;95.15;32.03;;;1.40;99.90;;;;;;4950532;28;20035;-70
2022/01/28 08:22:03;;;;;;;69.03;30.40;;;1.30;99.90;;;;;;4950758;28;20039;-71
2022/01/28 08:24:29;;;;;;;93.68;33.40;;;1.30;99.90;;;;;;4951983;28;20027;-70
2022/01/28 08:26:55;;;;;;;98.50;33.13;;;1.20;99.90;;;;;;4953574;29;20034;-70
2022/01/28 08:29:21;;;;;;;89.57;31.92;;;1.30;99.90;;;;;;4952900;29;20031;-70
2022/01/28 08:31:46;;;;;;;94.05;31.90;;;1.20;99.90;;;;;;4950439;29;20496;-70
2022/01/28 08:34:12;;;;;;;110.75;36.30;;;1.40;99.90;;;;;;4950288;28;20042;-70
2022/01/28 08:36:38;;;;;;;116.72;35.50;;;1.40;99.90;;;;;;4950240;29;20020;-68
2022/01/28 08:39:05;;;;;;;210.45;40.90;;;1.40;99.90;;;;;;4951904;28;20031;-69
2022/01/28 08:41:32;;;;;;;102.07;37.20;;;1.20;99.90;;;;;;4952878;29;20035;-69
2022/01/28 08:43:58;;;;;;;108.65;36.22;;;1.30;99.90;;;;;;4950314;28;20046;-69
2022/01/28 08:46:24;;;;;;;101.22;33.53;;;1.20;99.90;;;;;;4949956;29;20035;-69
2022/01/28 08:48:50;;;;;;;96.15;33.75;;;1.20;99.90;;;;;;4950016;29;20051;-69
2022/01/28 08:51:16;;;;;;;73.03;29.70;;;1.40;99.90;;;;;;4950682;29;20034;-69
2022/01/28 08:53:42;;;;;;;54.55;27.23;;;1.50;99.90;;;;;;4953489;29;20042;-69
2022/01/28 08:56:09;;;;;;;61.13;28.52;;;2.00;99.90;;;;;;4950219;29;20023;-69
2022/01/28 08:58:35;;;;;;;88.30;32.88;;;1.80;99.90;;;;;;4950389;29;20114;-69
2022/01/28 09:01:01;;;;;;;61.22;30.08;;;1.60;99.90;;;;;;4949784;29;20041;-69
2022/01/28 09:03:26;;;;;;;77.22;31.73;;;2.00;99.90;;;;;;4950343;29;20103;-69
2022/01/28 09:05:52;;;;;;;59.30;30.27;;;1.80;99.90;;;;;;4952633;28;20636;-70
2022/01/28 09:08:18;;;;;;;123.07;34.15;;;1.60;99.90;;;;;;4950596;29;20027;-69
2022/01/28 09:10:57;;;;;;;71.18;31.13;;;1.60;99.90;;;;;;4949824;29;20027;-70
2022/01/28 09:13:37;;;;;;;58.25;29.55;;;1.90;99.90;;;;;;4949926;28;20496;-69
2022/01/28 09:16:03;;;;;;;63.22;28.13;;;2.00;99.90;;;;;;4950210;29;20051;-70
2022/01/28 09:18:29;;;;;;;94.50;31.45;;;2.10;99.90;;;;;;4949417;28;20152;-71
2022/01/28 09:20:56;;;;;;;100.88;31.10;;;1.60;99.90;;;;;;4951300;29;20395;-68
2022/01/28 09:23:22;;;;;;;62.88;26.88;;;1.70;99.90;;;;;;4951435;29;20059;-68
2022/01/28 09:25:48;;;;;;;65.18;28.50;;;1.90;99.90;;;;;;4947237;29;20066;-67
2022/01/28 09:28:14;;;;;;;63.40;27.63;;;1.80;99.90;;;;;;4949569;29;20047;-67
2022/01/28 09:30:40;;;;;;;86.38;30.80;;;1.90;99.90;;;;;;4949875;29;20126;-69
2022/01/28 09:33:06;;;;;;;57.80;27.60;;;1.80;99.90;;;;;;4950184;28;20126;-69
2022/01/28 09:35:32;;;;;;;129.05;32.05;;;2.00;99.90;;;;;;4951845;29;20115;-76
2022/01/28 09:37:57;;;;;;;54.78;26.25;;;2.00;99.90;;;;;;4948515;29;20396;-69
2022/01/28 09:40:23;;;;;;;70.53;27.25;;;2.20;99.90;;;;;;4948741;28;20047;-69
2022/01/28 09:42:52;;;;;;;48.17;25.42;;;2.30;99.90;;;;;;4949662;29;20024;-69
2022/01/28 09:45:21;;;;;;;43.63;23.20;;;2.50;99.90;;;;;;4935606;29;20040;-69
2022/01/28 09:47:47;;;;;;;42.92;23.85;;;2.40;99.90;;;;;;4949553;29;20392;-69
2022/01/28 09:50:13;;;;;;;41.42;23.08;;;2.60;99.90;;;;;;4949207;28;20055;-69
2022/01/28 09:52:39;;;;;;;80.47;28.20;;;2.70;99.90;;;;;;4949401;29;20559;-69
2022/01/28 09:55:07;;;;;;;49.35;26.73;;;2.10;99.90;;;;;;4949314;29;20066;-69
2022/01/28 09:57:33;;;;;;;60.55;27.00;;;2.30;99.90;;;;;;4949394;29;20047;-69
2022/01/28 09:59:58;;;;;;;58.22;26.80;;;2.60;99.90;;;;;;4951653;28;20047;-69
2022/01/28 10:02:47;;;;;;;52.03;27.75;;;2.70;99.90;;;;;;4950854;29;20099;-69
2022/01/28 10:05:24;;;;;;;93.20;43.65;;;2.40;99.90;;;;;;4942075;28;20047;-69
2022/01/28 10:07:59;;;;;;;69.15;37.92;;;2.40;99.90;;;;;;4948791;29;20808;-68
2022/01/28 10:10:26;;;;;;;51.30;27.67;;;2.50;99.90;;;;;;4949235;29;20029;-69
2022/01/28 10:13:10;;;;;;;44.33;25.05;;;2.80;99.90;;;;;;4949355;28;20039;-69
2022/01/28 10:15:35;;;;;;;54.97;23.20;;;2.80;99.90;;;;;;4936191;29;20043;-69
2022/01/28 10:18:01;;;;;;;47.42;22.52;;;2.60;99.90;;;;;;4950659;29;20024;-69
2022/01/28 10:20:28;;;;;;;38.72;23.25;;;2.70;99.90;;;;;;4950480;29;20094;-68
2022/01/28 10:23:01;;;;;;;47.83;26.23;;;2.70;99.90;;;;;;4949226;29;20027;-69
2022/01/28 10:25:36;;;;;;;65.55;29.75;;;3.00;99.90;;;;;;4949135;28;20039;-68
2022/01/28 10:28:03;;;;;;;53.90;27.33;;;3.00;99.90;;;;;;4949773;29;20090;-69
2022/01/28 10:30:34;;;;;;;54.08;27.92;;;2.90;99.90;;;;;;4949165;29;20034;-70
2022/01/28 10:33:21;;;;;;;41.00;25.40;;;2.90;99.90;;;;;;4951339;28;20028;-69
2022/01/28 10:35:55;;;;;;;39.88;24.85;;;3.40;99.90;;;;;;4954759;28;20023;-69
2022/01/28 10:38:31;;;;;;;46.95;24.30;;;3.50;99.90;;;;;;4955148;29;20054;-69
2022/01/28 10:41:12;;;;;;;48.00;23.65;;;3.30;99.90;;;;;;4952231;28;20166;-71
2022/01/28 10:43:46;;;;;;;61.13;23.92;;;3.20;99.90;;;;;;4951096;29;20106;-72
2022/01/28 10:46:13;;;;;;;42.88;21.08;;;2.90;99.90;;;;;;4951987;29;20086;-68
2022/01/28 10:49:08;;;;;;;35.88;21.23;;;2.90;99.90;;;;;;4951819;28;20050;-68
2022/01/28 10:51:49;;;;;;;32.53;21.75;;;3.50;99.90;;;;;;4926775;29;20035;-74
2022/01/28 10:54:21;;;;;;;57.65;23.90;;;3.70;99.90;;;;;;4953080;29;20059;-74
2022/01/28 10:56:53;;;;;;;73.35;25.67;;;3.30;99.90;;;;;;4956428;29;20023;-76
2022/01/28 10:59:21;;;;;;;48.13;23.35;;;3.30;99.90;;;;;;4953723;29;20070;-76
2022/01/28 11:01:47;;;;;;;39.33;22.98;;;3.40;99.90;;;;;;4952008;29;20070;-73
2022/01/28 11:04:15;;;;;;;40.63;24.75;;;3.40;99.90;;;;;;4951750;29;20042;-72
2022/01/28 11:06:42;;;;;;;52.63;25.70;;;4.00;99.90;;;;;;4952405;28;20043;-70
2022/01/28 11:09:09;;;;;;;63.55;28.00;;;4.20;99.90;;;;;;4953619;28;20030;-73
2022/01/28 11:11:35;;;;;;;63.97;29.48;;;3.70;99.90;;;;;;4954385;29;20425;-71
2022/01/28 11:14:02;;;;;;;51.50;24.67;;;3.70;99.90;;;;;;4951875;29;20433;-73
2022/01/28 11:16:28;;;;;;;37.05;20.00;;;3.70;99.90;;;;;;4945945;28;20034;-72
2022/01/28 11:18:55;;;;;;;30.40;17.33;;;4.00;99.90;;;;;;4940970;29;20028;-73
2022/01/28 11:21:44;;;;;;;38.67;16.10;;;3.70;99.90;;;;;;4952031;28;20047;-71
2022/01/28 11:24:13;;;;;;;39.85;27.38;;;3.60;99.90;;;;;;4876229;29;21188;-70
2022/01/28 11:27:10;;;;;;;34.45;19.85;;;3.60;99.90;;;;;;4877927;29;20037;-68
2022/01/28 11:29:36;;;;;;;32.65;17.95;;;3.80;99.90;;;;;;4876735;29;20101;-70
2022/01/28 11:32:14;;;;;;;39.53;30.08;;;3.90;99.90;;;;;;4876466;29;20033;-70
2022/01/28 11:35:02;;;;;;;31.30;17.65;;;4.10;99.90;;;;;;4875892;29;20045;-70
2022/01/28 11:37:30;;;;;;;34.78;18.48;;;3.90;99.90;;;;;;4876332;29;20109;-71
2022/01/28 11:40:12;;;;;;;33.65;19.63;;;4.20;99.90;;;;;;4876121;29;20120;-68
2022/01/28 11:42:39;;;;;;;43.35;27.45;;;4.10;99.90;;;;;;4875953;29;20554;-70
2022/01/28 11:45:09;;;;;;;25.45;15.70;;;4.00;99.90;;;;;;4876618;29;20036;-70
2022/01/28 11:47:56;;;;;;;29.58;16.75;;;3.90;99.90;;;;;;4875594;29;20081;-70
2022/01/28 11:50:23;;;;;;;25.02;15.93;;;4.00;99.90;;;;;;4877137;29;20045;-71
2022/01/28 11:52:54;;;;;;;26.45;16.38;;;4.20;99.90;;;;;;4876389;29;20545;-73
2022/01/28 11:55:26;;;;;;;27.05;15.93;;;4.10;99.90;;;;;;4876141;29;20040;-73
2022/01/28 11:57:58;;;;;;;22.48;16.25;;;4.10;99.90;;;;;;4876104;29;20036;-74
2022/01/28 12:00:35;;;;;;;28.27;17.38;;;4.60;99.90;;;;;;4887062;29;20039;-71
2022/01/28 12:03:02;;;;;;;28.52;18.63;;;4.70;99.90;;;;;;4953035;28;20031;-70
2022/01/28 12:05:30;;;;;;;32.25;20.05;;;4.60;99.90;;;;;;4952580;28;20035;-69
2022/01/28 12:07:59;;;;;;;23.33;16.25;;;4.50;99.90;;;;;;4951099;29;20147;-69
2022/01/28 12:10:26;;;;;;;34.35;21.33;;;4.60;99.90;;;;;;4950757;29;20035;-70
2022/01/28 12:13:00;;;;;;;21.95;15.10;;;5.00;99.90;;;;;;4950724;29;20046;-69
2022/01/28 12:15:29;;;;;;;29.13;20.73;;;4.90;99.90;;;;;;4936633;29;20094;-69
2022/01/28 12:18:11;;;;;;;24.42;17.38;;;5.10;99.90;;;;;;4953085;28;20039;-69
2022/01/28 12:20:48;;;;;;;20.13;13.98;;;5.20;99.90;;;;;;4953447;29;20110;-69
2022/01/28 12:23:13;;;;;;;23.70;14.90;;;4.80;99.90;;;;;;4950572;29;20078;-69
2022/01/28 12:25:42;;;;;;;28.35;19.88;;;4.70;99.90;;;;;;4951060;29;20023;-69
2022/01/28 12:28:21;;;;;;;16.52;12.65;;;5.20;99.90;;;;;;4949415;29;20381;-69
2022/01/28 12:31:16;;;;;;;18.33;12.65;;;5.40;99.90;;;;;;4949069;29;20027;-69
2022/01/28 12:33:45;;;;;;;19.58;14.68;;;5.50;99.90;;;;;;4938322;29;20023;-69
2022/01/28 12:36:16;;;;;;;19.08;13.20;;;5.50;99.90;;;;;;4951793;28;20046;-70
2022/01/28 12:41:35;;;;;;;17.80;12.90;;;5.20;99.90;;;;;;4954111;29;20082;-69
2022/01/28 12:44:04;;;;;;;17.63;13.13;;;5.30;99.90;;;;;;4949650;29;20571;-69
2022/01/28 12:46:31;;;;;;;16.60;12.30;;;5.10;99.90;;;;;;4950393;28;20031;-69
2022/01/28 12:48:59;;;;;;;18.10;12.57;;;5.20;99.90;;;;;;4949887;29;20047;-69
2022/01/28 12:51:25;;;;;;;17.25;12.48;;;5.10;99.90;;;;;;4950480;29;20019;-69
2022/01/28 12:53:54;;;;;;;19.63;13.00;;;5.00;99.90;;;;;;4953767;28;20437;-69
2022/01/28 12:56:50;;;;;;;17.70;12.98;;;5.20;99.90;;;;;;4952207;29;20042;-69
2022/01/28 12:59:16;;;;;;;17.98;12.77;;;5.20;99.90;;;;;;4934425;29;20110;-70
2022/01/28 13:01:50;;;;;;;17.48;12.98;;;5.50;99.90;;;;;;4949666;29;20504;-70
2022/01/28 13:04:19;;;;;;;19.90;15.00;;;5.50;99.90;;;;;;4949804;29;20027;-69
2022/01/28 13:09:18;;;;;;;19.27;16.27;;;5.30;99.90;;;;;;4951040;29;20126;-69
2022/01/28 13:11:51;;;;;;;18.83;13.38;;;5.60;99.90;;;;;;4953796;29;20127;-69
2022/01/28 13:14:27;;;;;;;24.00;17.00;;;5.50;99.90;;;;;;4951596;29;20035;-69
2022/01/28 13:16:54;;;;;;;311.85;155.88;;;5.40;99.90;;;;;;4949794;29;20027;-70
2022/01/28 13:19:20;;;;;;;236.35;148.07;;;5.40;99.90;;;;;;4944668;29;20563;-70
2022/01/28 13:21:49;;;;;;;239.48;123.50;;;5.50;99.90;;;;;;4937749;29;20038;-69
2022/01/28 13:24:23;;;;;;;98.65;62.10;;;5.60;99.90;;;;;;4950699;28;20024;-70
2022/01/28 13:26:56;;;;;;;25.92;17.42;;;5.50;99.90;;;;;;4954203;28;20023;-69
2022/01/28 13:29:43;;;;;;;25.92;20.92;;;5.60;99.90;;;;;;4952165;29;20035;-70
2022/01/28 13:32:11;;;;;;;18.88;13.57;;;5.90;99.90;;;;;;4949691;29;20114;-70
2022/01/28 13:34:52;;;;;;;19.15;14.15;;;5.80;99.90;;;;;;4949674;29;20035;-69
2022/01/28 13:37:45;;;;;;;18.40;13.70;;;5.60;99.90;;;;;;4949873;29;20102;-70
2022/01/28 13:40:32;;;;;;;17.52;13.20;;;5.90;99.90;;;;;;4949680;28;20035;-69
2022/01/28 13:43:00;;;;;;;18.83;14.10;;;5.60;99.90;;;;;;4949673;29;20028;-69
2022/01/28 13:45:31;;;;;;;28.63;24.27;;;5.70;99.90;;;;;;4949698;29;20047;-69
2022/01/28 13:47:58;;;;;;;17.40;13.43;;;5.80;99.90;;;;;;4951904;28;20027;-70
2022/01/28 13:50:29;;;;;;;23.38;16.02;;;5.80;99.90;;;;;;4946832;29;20035;-69
2022/01/28 13:56:07;;;;;;;17.45;13.57;;;5.90;99.90;;;;;;4949439;29;20067;-69
2022/01/28 13:58:53;;;;;;;19.63;15.45;;;6.20;99.90;;;;;;4948766;29;20027;-69
2022/01/28 14:01:22;;;;;;;15.63;13.38;;;6.10;99.90;;;;;;4949394;29;20039;-69
2022/01/28 14:03:58;;;;;;;17.63;14.35;;;6.10;99.90;;;;;;4964068;28;20034;-69
2022/01/28 14:06:31;;;;;;;20.33;16.35;;;6.00;99.90;;;;;;4934491;29;20043;-68
2022/01/28 14:09:20;;;;;;;48.97;31.73;;;6.10;99.90;;;;;;4951740;28;20046;-69
2022/01/28 14:12:00;;;;;;;17.88;14.57;;;6.20;99.90;;;;;;4957128;29;20038;-69
2022/01/28 14:14:35;;;;;;;18.05;14.90;;;6.30;99.90;;;;;;4955640;29;20031;-69
2022/01/28 14:17:04;;;;;;;17.80;15.13;;;6.40;99.90;;;;;;4953245;28;20046;-69
2022/01/28 14:19:33;;;;;;;36.78;20.73;;;6.90;99.90;;;;;;4952795;28;20063;-69
2022/01/28 14:21:59;;;;;;;16.08;12.90;;;6.70;99.90;;;;;;4953171;28;20508;-70
2022/01/28 14:24:32;;;;;;;265.30;94.75;;;6.50;99.90;;;;;;4952892;28;20027;-69